Etusivu
METAR-TAF:

METAR-TAF

Lentoasemat :

Glenwood Municipal Airport

Glenwood, Minnesota, Yhdysvallat

Leveyspiiri: 45-39N, Pituuspiiri: 095-19W, korkeus merenpinnasta: 425 m

Tämänhetkinen sää

Tämä raportti tehtiin 6 minuuttia sitten, kello 10.55 UTC
Tuuli 19 kn pohjoisesta puuskistuen 26 kn:hen
Lämpötila 1°C
Kosteus 86%
Ilmanpaine 1009 hPa
Näkyvyys: 6.4 km
Hajonneita pilviä 1500 ft:n korkeudessa
Hajonneita pilviä 1900 ft:n korkeudessa
heikkoa lumisadetta

METAR: KGHW 211055Z AUTO 35019G26KT 4SM -SN BKN015 BKN019 01/M01 A2981 RMK AO2

Aika: 05:01 (11:01 UTC)


TAF: puuttuu

Säähavainnot ja -ennusteet yli 4000 lentoasemalta (METAR- ja TAF-raportit).

Käytössä olevat sääasemat on merkitty karttaan keltaisilla ja punaisilla pisteillä.

Aseta hiiri pisteen päälle nähdäksesi sääaseman nimen.

Klikkaa sitten nähdäksesi säähavainnot ja -ennusteet.

Kartan vaihtaminen: klikkaa mustalla rastilla varustettuja vihreitä pisteitä, niin voit zoomata sisään; viivalla varustettua vihreää pistettä, niin voit zoomata ulos tai vihreitä nuolia, niin pääset viereisille kartoille.


METAR-TAF: